Time;durP1;ratioP1;P1;durP2;ratioP2;P2;SDS_P1;SDS_P2;PMS_P1;PMS_P2;Temp;Humidity;BMP_temperature;BMP_pressure;BME280_temperature;BME280_humidity;BME280_pressure;Samples;Min_cycle;Max_cycle;Signal;HPM_P1;HPM_P2
2023/08/14 00:01:02;;;;;;;3.28;0.65;;;15.90;99.90;;;;;;5049587;28;20036;-48
2023/08/14 00:03:27;;;;;;;0.40;0.40;;;15.90;99.90;;;;;;5031479;28;20099;-50
2023/08/14 00:05:53;;;;;;;21.27;1.05;;;16.00;99.90;;;;;;5049067;28;20033;-49
2023/08/14 00:08:19;;;;;;;0.43;0.32;;;15.90;99.90;;;;;;5048881;28;20044;-50
2023/08/14 00:10:45;;;;;;;1.15;0.80;;;15.80;99.90;;;;;;5049341;28;20033;-49
2023/08/14 00:13:11;;;;;;;7.40;1.42;;;15.80;99.90;;;;;;5049514;28;20478;-50
2023/08/14 00:15:37;;;;;;;2.33;0.75;;;15.70;99.90;;;;;;5049373;28;20481;-50
2023/08/14 00:18:03;;;;;;;1.45;0.70;;;15.70;99.90;;;;;;5048934;28;20072;-50
2023/08/14 00:20:28;;;;;;;4.38;0.50;;;15.60;99.90;;;;;;5049393;28;20033;-49
2023/08/14 00:22:54;;;;;;;3.55;0.70;;;15.60;99.90;;;;;;5048732;28;20052;-49
2023/08/14 00:25:21;;;;;;;0.93;0.50;;;15.60;99.90;;;;;;5049730;28;20060;-52
2023/08/14 00:27:47;;;;;;;3.90;0.60;;;15.60;99.90;;;;;;5049453;28;20040;-50
2023/08/14 00:30:13;;;;;;;34.55;1.65;;;15.50;99.90;;;;;;5049809;28;20052;-51
2023/08/14 00:32:38;;;;;;;23.25;1.20;;;15.50;99.90;;;;;;5048952;28;20387;-49
2023/08/14 00:35:04;;;;;;;29.20;1.90;;;15.50;99.90;;;;;;5049428;28;20040;-49
2023/08/14 00:37:47;;;;;;;0.73;0.50;;;15.40;99.90;;;;;;5048479;28;20490;-50
2023/08/14 00:40:14;;;;;;;0.57;0.50;;;15.40;99.90;;;;;;5050614;28;20490;-50
2023/08/14 00:42:42;;;;;;;7.97;0.50;;;15.30;99.90;;;;;;5034828;28;20037;-50
2023/08/14 00:45:09;;;;;;;0.20;0.20;;;15.40;99.90;;;;;;5052895;28;20448;-48
2023/08/14 00:47:35;;;;;;;44.90;4.13;;;15.30;99.90;;;;;;5052110;28;20079;-49
2023/08/14 00:50:06;;;;;;;41.13;2.90;;;15.30;99.90;;;;;;5052124;28;20069;-51
2023/08/14 00:52:38;;;;;;;3.75;1.73;;;15.30;99.90;;;;;;5052274;28;20041;-48
2023/08/14 00:55:08;;;;;;;0.95;0.73;;;15.20;99.90;;;;;;5052562;28;20494;-50
2023/08/14 00:57:34;;;;;;;2.08;1.02;;;15.20;99.90;;;;;;5051795;28;20083;-50
2023/08/14 01:00:03;;;;;;;3.38;0.90;;;15.20;99.90;;;;;;5052273;28;20048;-48
2023/08/14 01:02:30;;;;;;;0.30;0.30;;;15.20;99.90;;;;;;5051618;28;20438;-50
2023/08/14 01:04:55;;;;;;;0.55;0.20;;;15.20;99.90;;;;;;5052365;28;20033;-51
2023/08/14 01:07:21;;;;;;;1.33;0.73;;;15.20;99.90;;;;;;5052063;28;20110;-49
2023/08/14 01:09:47;;;;;;;36.65;2.60;;;15.20;99.90;;;;;;5034318;28;20037;-49
2023/08/14 01:12:48;;;;;;;45.92;3.45;;;15.10;99.90;;;;;;5052127;28;20033;-50
2023/08/14 01:15:19;;;;;;;61.33;4.20;;;15.10;99.90;;;;;;5052221;28;20048;-50
2023/08/14 01:17:52;;;;;;;31.60;2.67;;;15.00;99.90;;;;;;5052034;28;20051;-48
2023/08/14 01:20:20;;;;;;;151.85;5.70;;;14.90;99.90;;;;;;5052300;28;20556;-50
2023/08/14 01:23:04;;;;;;;196.00;7.72;;;14.80;99.90;;;;;;5051873;28;20046;-49
2023/08/14 01:25:37;;;;;;;211.50;9.80;;;14.70;99.90;;;;;;5034065;28;20079;-48
2023/08/14 01:28:04;;;;;;;196.70;8.52;;;14.60;99.90;;;;;;5050850;28;20033;-49
2023/08/14 01:30:30;;;;;;;15.50;3.33;;;14.40;99.90;;;;;;5051178;28;20119;-50
2023/08/14 01:32:56;;;;;;;56.58;5.13;;;14.40;99.90;;;;;;5051520;28;20470;-49
2023/08/14 01:35:36;;;;;;;130.68;6.15;;;14.40;99.90;;;;;;5051909;28;20166;-49
2023/08/14 01:38:17;;;;;;;3.22;2.03;;;14.50;99.90;;;;;;5032832;28;20049;-48
2023/08/14 01:40:54;;;;;;;3.20;2.15;;;14.50;99.90;;;;;;5033808;28;20402;-50
2023/08/14 01:43:29;;;;;;;18.67;4.07;;;14.50;99.90;;;;;;5048317;28;20033;-50
2023/08/14 01:45:56;;;;;;;2.90;2.70;;;14.60;99.90;;;;;;5051552;28;20073;-49
2023/08/14 01:48:23;;;;;;;2.97;2.78;;;14.70;99.90;;;;;;5038401;28;20045;-48
2023/08/14 01:50:51;;;;;;;3.92;2.92;;;14.70;99.90;;;;;;5043513;28;20045;-49
2023/08/14 01:53:17;;;;;;;2.78;2.58;;;14.80;99.90;;;;;;5040586;28;20407;-49
2023/08/14 01:55:43;;;;;;;3.30;3.10;;;14.80;99.90;;;;;;5037617;28;20052;-50
2023/08/14 01:58:08;;;;;;;2.35;2.25;;;14.80;99.90;;;;;;5041683;28;20037;-51
2023/08/14 02:00:34;;;;;;;3.05;2.30;;;14.80;99.90;;;;;;5051298;28;20106;-50
2023/08/14 02:03:00;;;;;;;3.17;2.97;;;14.80;99.90;;;;;;5032344;28;20037;-50
2023/08/14 02:05:26;;;;;;;4.05;3.65;;;14.90;99.90;;;;;;5050796;28;20041;-50
2023/08/14 02:07:51;;;;;;;7.32;5.75;;;14.80;99.90;;;;;;5032939;28;20041;-50
2023/08/14 02:10:17;;;;;;;5.60;5.10;;;14.80;99.90;;;;;;5051515;28;20041;-50
2023/08/14 02:12:43;;;;;;;11.32;6.22;;;14.90;99.90;;;;;;5051282;28;20478;-50
2023/08/14 02:15:09;;;;;;;6.28;5.47;;;14.90;99.90;;;;;;5050909;28;20041;-50
2023/08/14 02:17:34;;;;;;;5.78;5.28;;;15.00;99.90;;;;;;5050883;28;20084;-50
2023/08/14 02:20:00;;;;;;;134.32;10.25;;;15.00;99.90;;;;;;5050522;28;20043;-50
2023/08/14 02:22:25;;;;;;;7.35;4.75;;;15.00;99.90;;;;;;5050958;28;20112;-48
2023/08/14 02:24:52;;;;;;;76.95;9.63;;;15.00;99.90;;;;;;5050848;28;20045;-49
2023/08/14 02:27:18;;;;;;;10.32;7.47;;;15.00;99.90;;;;;;5051136;28;20395;-50
2023/08/14 02:29:44;;;;;;;10.07;6.05;;;15.00;99.90;;;;;;5050292;28;20120;-50
2023/08/14 02:32:10;;;;;;;7.03;5.88;;;15.00;99.90;;;;;;5050278;28;20041;-50
2023/08/14 02:34:49;;;;;;;6.63;6.03;;;14.90;99.90;;;;;;5050512;28;20048;-51
2023/08/14 02:37:16;;;;;;;8.70;7.07;;;14.90;99.90;;;;;;5050387;28;20037;-51
2023/08/14 02:39:42;;;;;;;8.93;8.07;;;14.90;99.90;;;;;;5050091;28;20052;-49
2023/08/14 02:42:08;;;;;;;12.90;8.65;;;14.90;99.90;;;;;;5051049;28;20065;-49
2023/08/14 02:44:34;;;;;;;8.70;7.65;;;14.90;99.90;;;;;;5049490;28;20431;-50
2023/08/14 02:47:00;;;;;;;10.48;9.27;;;14.90;99.90;;;;;;5050547;28;20037;-50
2023/08/14 02:49:26;;;;;;;;;;;14.90;99.90;;;;;;5050450;28;20038;-49
2023/08/14 02:51:52;;;;;;;56.88;9.07;;;15.00;99.90;;;;;;5050414;28;19978;-49
2023/08/14 02:54:17;;;;;;;32.05;8.27;;;14.90;99.90;;;;;;5032482;28;20502;-49
2023/08/14 02:56:43;;;;;;;6.93;6.30;;;14.80;99.90;;;;;;5050579;28;20075;-50
2023/08/14 02:59:09;;;;;;;7.18;6.47;;;14.80;99.90;;;;;;5045501;28;20563;-49
2023/08/14 03:01:34;;;;;;;5.57;5.15;;;14.80;99.90;;;;;;5048797;28;20029;-50
2023/08/14 03:04:00;;;;;;;7.45;5.88;;;14.80;99.90;;;;;;5047807;28;20033;-50
2023/08/14 03:06:29;;;;;;;10.40;9.30;;;14.80;99.90;;;;;;5050288;28;20045;-49
2023/08/14 03:08:55;;;;;;;14.27;11.13;;;14.80;99.90;;;;;;5042197;28;20112;-50
2023/08/14 03:11:21;;;;;;;10.85;9.73;;;14.80;99.90;;;;;;5049858;28;20120;-50
2023/08/14 03:13:47;;;;;;;15.13;10.27;;;14.90;99.90;;;;;;5042056;28;20125;-52
2023/08/14 03:16:12;;;;;;;9.48;7.15;;;14.90;99.90;;;;;;5050122;28;20059;-50
2023/08/14 03:18:38;;;;;;;22.27;9.57;;;14.90;99.90;;;;;;5049730;28;20037;-50
2023/08/14 03:21:04;;;;;;;10.82;8.13;;;14.90;99.90;;;;;;5049836;28;20072;-49
2023/08/14 03:23:29;;;;;;;8.60;7.90;;;14.90;99.90;;;;;;5050115;28;20041;-48
2023/08/14 03:25:55;;;;;;;8.93;7.93;;;14.90;99.90;;;;;;5049825;28;20060;-51
2023/08/14 03:28:20;;;;;;;6.28;5.68;;;14.90;99.90;;;;;;5049264;28;20464;-50
2023/08/14 03:30:49;;;;;;;16.23;6.05;;;14.80;99.90;;;;;;5049532;28;20036;-51
2023/08/14 03:33:14;;;;;;;62.05;8.07;;;14.80;99.90;;;;;;5050082;28;20040;-50
2023/08/14 03:35:40;;;;;;;6.82;5.78;;;14.70;99.90;;;;;;5049564;28;20037;-48
2023/08/14 03:38:05;;;;;;;5.38;4.97;;;14.60;99.90;;;;;;5049642;28;20375;-50
2023/08/14 03:40:31;;;;;;;10.55;6.45;;;14.50;99.90;;;;;;5049678;28;20035;-49
2023/08/14 03:42:57;;;;;;;8.40;7.15;;;14.50;99.90;;;;;;5049480;28;20037;-50
2023/08/14 03:45:23;;;;;;;10.65;8.45;;;14.40;99.90;;;;;;5049657;28;20029;-49
2023/08/14 03:47:48;;;;;;;8.38;6.93;;;14.50;99.90;;;;;;5049297;28;20044;-50
2023/08/14 03:50:14;;;;;;;9.13;8.18;;;14.50;99.90;;;;;;5049413;28;20130;-50
2023/08/14 03:52:40;;;;;;;4.95;4.57;;;14.50;99.90;;;;;;5049470;28;20033;-49
2023/08/14 03:55:06;;;;;;;4.03;3.70;;;14.60;99.90;;;;;;5049478;28;20041;-48
2023/08/14 03:57:32;;;;;;;5.88;5.32;;;14.60;99.90;;;;;;5049150;28;20177;-49
2023/08/14 03:59:57;;;;;;;6.15;5.72;;;14.50;99.90;;;;;;5049640;28;20072;-49
2023/08/14 04:02:23;;;;;;;6.25;5.75;;;14.50;99.90;;;;;;5049691;28;20109;-49
2023/08/14 04:04:48;;;;;;;6.53;5.93;;;14.40;99.90;;;;;;5049374;28;20040;-49
2023/08/14 04:07:14;;;;;;;6.57;5.97;;;14.40;99.90;;;;;;5049491;28;20071;-50
2023/08/14 04:09:40;;;;;;;7.90;7.15;;;14.40;99.90;;;;;;5049146;28;20669;-50
2023/08/14 04:12:06;;;;;;;5.60;5.20;;;14.40;99.90;;;;;;5048997;28;20033;-48
2023/08/14 04:14:32;;;;;;;7.53;6.72;;;14.40;99.90;;;;;;5049756;28;20040;-50
2023/08/14 04:16:58;;;;;;;7.00;6.45;;;14.40;99.90;;;;;;5053068;28;20049;-50
2023/08/14 04:19:24;;;;;;;6.35;5.68;;;14.40;99.90;;;;;;5053044;28;20067;-48
2023/08/14 04:21:49;;;;;;;28.95;4.90;;;14.40;99.90;;;;;;5052715;28;20069;-50
2023/08/14 04:24:15;;;;;;;3.85;3.50;;;14.50;99.90;;;;;;5053315;28;20033;-49
2023/08/14 04:26:41;;;;;;;4.88;4.15;;;14.40;99.90;;;;;;5052072;28;20048;-49
2023/08/14 04:29:08;;;;;;;15.30;6.25;;;14.40;99.90;;;;;;5053072;28;20102;-50
2023/08/14 04:31:37;;;;;;;138.38;11.45;;;14.40;99.90;;;;;;5052927;28;20102;-50
2023/08/14 04:34:04;;;;;;;5.57;4.95;;;14.40;99.90;;;;;;5053171;28;20075;-48
2023/08/14 04:36:34;;;;;;;;;;;14.40;99.90;;;;;;5053379;28;20033;-50
2023/08/14 04:39:00;;;;;;;2.78;2.58;;;14.40;99.90;;;;;;5052811;28;19916;-48
2023/08/14 04:41:26;;;;;;;4.93;3.40;;;14.40;99.90;;;;;;5052607;28;20041;-51
2023/08/14 04:43:53;;;;;;;6.18;5.57;;;14.40;99.90;;;;;;5053125;28;20045;-49
2023/08/14 04:46:36;;;;;;;7.75;4.43;;;14.50;99.90;;;;;;5052756;28;20093;-50
2023/08/14 04:49:03;;;;;;;11.40;4.78;;;14.60;99.90;;;;;;5052519;28;20076;-49
2023/08/14 04:51:30;;;;;;;10.95;7.13;;;14.60;99.90;;;;;;5052334;28;20043;-50
2023/08/14 04:53:56;;;;;;;6.60;5.78;;;14.70;99.90;;;;;;5052552;28;20045;-49
2023/08/14 04:56:22;;;;;;;10.80;8.50;;;14.70;99.90;;;;;;5052401;28;20581;-49
2023/08/14 04:58:49;;;;;;;12.32;9.00;;;14.80;99.90;;;;;;5052469;28;20037;-47
2023/08/14 05:01:15;;;;;;;12.75;9.25;;;14.80;99.90;;;;;;5052256;28;20040;-51
2023/08/14 05:03:40;;;;;;;13.57;9.48;;;14.80;99.90;;;;;;5052643;28;20029;-49
2023/08/14 05:06:06;;;;;;;10.60;9.57;;;14.90;99.90;;;;;;5048305;28;20118;-50
2023/08/14 05:08:32;;;;;;;16.02;9.55;;;14.90;99.90;;;;;;5051642;28;20067;-49
2023/08/14 05:10:57;;;;;;;12.70;8.80;;;14.90;99.90;;;;;;5051954;28;20116;-49
2023/08/14 05:13:23;;;;;;;14.48;9.57;;;14.90;99.90;;;;;;5052271;28;20037;-50
2023/08/14 05:15:50;;;;;;;9.63;8.52;;;15.00;99.90;;;;;;5050810;28;20029;-50
2023/08/14 05:18:16;;;;;;;13.23;8.80;;;15.00;99.90;;;;;;5041493;28;20057;-51
2023/08/14 05:20:46;;;;;;;15.60;9.07;;;15.10;99.90;;;;;;5037930;28;20032;-50
2023/08/14 05:23:13;;;;;;;11.55;8.32;;;15.10;99.90;;;;;;5032399;28;20041;-48
2023/08/14 05:25:40;;;;;;;10.43;8.07;;;15.20;99.90;;;;;;5031894;28;20049;-48
2023/08/14 05:28:06;;;;;;;17.70;8.85;;;15.30;99.90;;;;;;5051249;28;20624;-50
2023/08/14 05:30:32;;;;;;;14.10;8.20;;;15.40;99.90;;;;;;5052240;28;20076;-50
2023/08/14 05:32:57;;;;;;;12.07;8.32;;;15.50;99.90;;;;;;5051831;28;20529;-48
2023/08/14 05:35:24;;;;;;;11.52;8.23;;;15.60;99.90;;;;;;5033710;28;20044;-50
2023/08/14 05:37:52;;;;;;;;;;;15.70;99.90;;;;;;5051695;28;20052;-51
2023/08/14 05:40:19;;;;;;;18.70;8.23;;;15.90;99.90;;;;;;5051947;28;19917;-51
2023/08/14 05:43:01;;;;;;;12.98;9.20;;;16.00;99.90;;;;;;5051579;28;20052;-49
2023/08/14 05:45:27;;;;;;;12.60;8.80;;;16.20;99.90;;;;;;5051864;28;20205;-50
2023/08/14 05:47:52;;;;;;;14.13;8.23;;;16.30;99.90;;;;;;5050500;28;20055;-50
2023/08/14 05:50:20;;;;;;;12.07;9.13;;;16.40;99.90;;;;;;5044321;28;20113;-50
2023/08/14 05:52:46;;;;;;;14.27;8.73;;;16.50;99.90;;;;;;5043446;28;20056;-51
2023/08/14 05:55:12;;;;;;;10.77;8.00;;;16.60;99.90;;;;;;5050674;28;20040;-50
2023/08/14 05:57:38;;;;;;;14.40;9.32;;;16.70;99.90;;;;;;5028988;28;20494;-50
2023/08/14 06:00:04;;;;;;;11.95;8.63;;;16.80;99.90;;;;;;5039470;28;20371;-50
2023/08/14 06:02:30;;;;;;;11.85;8.13;;;16.80;99.90;;;;;;5047387;28;20552;-52
2023/08/14 06:04:55;;;;;;;12.05;8.70;;;16.90;99.90;;;;;;5050192;28;20116;-50
2023/08/14 06:07:21;;;;;;;16.40;10.00;;;17.00;99.90;;;;;;5030562;28;20139;-50
2023/08/14 06:09:46;;;;;;;14.25;8.15;;;17.10;99.90;;;;;;5032146;28;20041;-49
2023/08/14 06:12:12;;;;;;;18.15;9.07;;;17.20;99.90;;;;;;5035246;28;20048;-50
2023/08/14 06:14:37;;;;;;;12.23;8.93;;;17.20;99.90;;;;;;5042367;28;20495;-50
2023/08/14 06:17:03;;;;;;;11.50;8.38;;;17.30;99.90;;;;;;5046777;28;20041;-51
2023/08/14 06:19:29;;;;;;;20.60;8.57;;;17.40;99.90;;;;;;5051245;28;20071;-50
2023/08/14 06:21:54;;;;;;;15.43;8.65;;;17.50;99.90;;;;;;5050822;28;20494;-49
2023/08/14 06:24:21;;;;;;;15.98;9.18;;;17.60;99.90;;;;;;5033538;28;20142;-49
2023/08/14 06:26:47;;;;;;;10.05;6.50;;;17.70;99.90;;;;;;5050934;28;20052;-50
2023/08/14 06:29:12;;;;;;;11.77;6.70;;;17.80;99.90;;;;;;5050179;28;20032;-50
2023/08/14 06:31:38;;;;;;;12.23;7.20;;;17.90;99.90;;;;;;5050338;28;20044;-48
2023/08/14 06:34:03;;;;;;;13.75;7.68;;;17.90;99.90;;;;;;5041360;28;20090;-49
2023/08/14 06:36:29;;;;;;;8.23;7.28;;;18.00;99.90;;;;;;5046301;28;20048;-50
2023/08/14 06:38:55;;;;;;;13.13;7.88;;;18.00;99.90;;;;;;5039549;28;20103;-50
2023/08/14 06:41:20;;;;;;;17.23;7.93;;;18.10;99.90;;;;;;5043713;28;20029;-50
2023/08/14 06:43:46;;;;;;;9.20;6.03;;;18.10;99.90;;;;;;5046001;28;20098;-50
2023/08/14 06:46:11;;;;;;;9.18;6.75;;;18.20;99.90;;;;;;5034938;28;20084;-49
2023/08/14 06:48:37;;;;;;;10.13;6.50;;;18.20;99.90;;;;;;5036637;28;20036;-50
2023/08/14 06:51:02;;;;;;;11.10;7.00;;;18.20;99.90;;;;;;5038105;28;20033;-51
2023/08/14 06:53:28;;;;;;;8.45;6.15;;;18.30;99.90;;;;;;5036059;28;20112;-50
2023/08/14 06:55:55;;;;;;;13.55;6.93;;;18.30;99.90;;;;;;5047461;28;20041;-52
2023/08/14 06:58:21;;;;;;;7.75;5.57;;;18.30;99.90;;;;;;5038213;28;20045;-50
2023/08/14 07:00:48;;;;;;;14.10;5.78;;;18.30;99.90;;;;;;5038897;28;20099;-50
2023/08/14 07:03:13;;;;;;;31.42;6.93;;;18.30;99.90;;;;;;5041125;28;20036;-50
2023/08/14 07:05:39;;;;;;;11.88;5.18;;;18.30;99.90;;;;;;5042463;28;20044;-49
2023/08/14 07:08:05;;;;;;;13.80;5.90;;;18.30;99.90;;;;;;5040596;28;20522;-50
2023/08/14 07:10:30;;;;;;;7.53;6.00;;;18.30;99.90;;;;;;5045891;28;20041;-50
2023/08/14 07:12:56;;;;;;;6.60;5.65;;;18.30;99.90;;;;;;5043640;28;20037;-49
2023/08/14 07:15:21;;;;;;;8.25;6.10;;;18.20;99.90;;;;;;5043402;28;20037;-50
2023/08/14 07:17:47;;;;;;;11.00;5.68;;;18.30;99.90;;;;;;5035583;28;20811;-52
2023/08/14 07:20:12;;;;;;;11.45;6.18;;;18.30;99.90;;;;;;5018816;28;20057;-51
2023/08/14 07:22:38;;;;;;;7.60;6.32;;;18.30;99.90;;;;;;5037134;28;20557;-49
2023/08/14 07:25:05;;;;;;;6.88;5.40;;;18.40;99.90;;;;;;5032823;28;20040;-49
2023/08/14 07:27:31;;;;;;;10.52;5.47;;;18.40;99.90;;;;;;5040398;28;20053;-49
2023/08/14 07:29:56;;;;;;;9.45;5.80;;;18.40;99.90;;;;;;5037949;28;20488;-51
2023/08/14 07:32:22;;;;;;;12.98;6.10;;;18.40;99.90;;;;;;5042100;28;20044;-49
2023/08/14 07:34:48;;;;;;;6.63;5.43;;;18.40;99.90;;;;;;5041224;28;20040;-50
2023/08/14 07:37:14;;;;;;;7.78;5.93;;;18.50;99.90;;;;;;5043431;28;20037;-49
2023/08/14 07:39:39;;;;;;;12.45;6.40;;;18.50;99.90;;;;;;5042164;28;20102;-48
2023/08/14 07:42:05;;;;;;;14.45;6.47;;;18.50;99.90;;;;;;5041622;28;20033;-49
2023/08/14 07:44:31;;;;;;;12.75;5.60;;;18.50;99.90;;;;;;5039658;28;20064;-51
2023/08/14 07:46:56;;;;;;;10.85;6.60;;;18.60;99.90;;;;;;5043014;28;20419;-49
2023/08/14 07:49:22;;;;;;;11.77;6.80;;;18.70;99.90;;;;;;5041871;28;20127;-51
2023/08/14 07:51:48;;;;;;;12.52;6.85;;;18.80;99.90;;;;;;5040137;28;20040;-51
2023/08/14 07:54:13;;;;;;;10.70;6.03;;;18.90;99.90;;;;;;5043572;28;20049;-49
2023/08/14 07:56:39;;;;;;;9.50;5.80;;;19.10;99.90;;;;;;5046179;28;20084;-49
2023/08/14 07:59:05;;;;;;;7.35;6.03;;;19.30;99.90;;;;;;5044601;28;20817;-51
2023/08/14 08:01:31;;;;;;;8.85;4.70;;;19.40;99.90;;;;;;5046068;28;20421;-50
2023/08/14 08:03:57;;;;;;;9.45;4.40;;;19.60;99.90;;;;;;5046449;28;20448;-50
2023/08/14 08:06:23;;;;;;;9.40;3.50;;;19.80;99.90;;;;;;5044804;28;20037;-49
2023/08/14 08:08:48;;;;;;;;;;;19.90;99.90;;;;;;5045716;28;20739;-50
2023/08/14 08:11:14;;;;;;;7.88;3.90;;;20.10;99.90;;;;;;5046054;28;19921;-50
2023/08/14 08:13:39;;;;;;;;;;;20.30;99.90;;;;;;5042152;28;20069;-48
2023/08/14 08:16:05;;;;;;;8.30;4.78;;;20.40;99.90;;;;;;5046443;28;19917;-49
2023/08/14 08:18:31;;;;;;;;;;;20.50;99.90;;;;;;5043296;28;20193;-50
2023/08/14 08:20:56;;;;;;;6.50;4.10;;;20.60;99.90;;;;;;5040578;28;20267;-50
2023/08/14 08:23:22;;;;;;;;;;;20.70;99.90;;;;;;5046405;28;20089;-50
2023/08/14 08:25:47;;;;;;;7.15;2.97;;;20.70;99.90;;;;;;5044888;28;20329;-51
2023/08/14 08:28:13;;;;;;;;;;;20.80;99.90;;;;;;5044944;28;20413;-51
2023/08/14 08:30:38;;;;;;;6.40;2.50;;;20.90;99.90;;;;;;5044111;28;19962;-51
2023/08/14 08:33:04;;;;;;;;;;;21.00;99.90;;;;;;5044813;28;20494;-50
2023/08/14 08:35:29;;;;;;;5.28;1.15;;;21.00;99.90;;;;;;5044134;28;19974;-51
2023/08/14 08:37:55;;;;;;;;;;;21.00;99.90;;;;;;5045114;28;20084;-51
2023/08/14 08:40:21;;;;;;;8.38;2.45;;;21.10;99.90;;;;;;5026421;28;19959;-51
2023/08/14 08:42:48;;;;;;;2.75;1.30;;;21.20;99.90;;;;;;5045246;28;20037;-52
2023/08/14 08:45:15;;;;;;;;;;;21.30;99.90;;;;;;5043747;28;20636;-51
2023/08/14 08:47:44;;;;;;;6.03;2.28;;;21.40;99.90;;;;;;5044167;28;20395;-53
2023/08/14 08:50:10;;;;;;;8.02;1.58;;;21.50;99.90;;;;;;5043525;28;20516;-51
2023/08/14 08:52:36;;;;;;;3.63;1.65;;;21.60;99.90;;;;;;5044735;28;20079;-49
2023/08/14 08:55:02;;;;;;;3.80;1.40;;;21.70;99.90;;;;;;5026672;28;20045;-49
2023/08/14 08:57:28;;;;;;;3.83;1.00;;;21.80;99.90;;;;;;5042255;28;20040;-51
2023/08/14 08:59:56;;;;;;;;;;;21.80;99.90;;;;;;5042854;28;20128;-52
2023/08/14 09:02:21;;;;;;;5.78;1.42;;;21.80;99.90;;;;;;5041913;28;19924;-51
2023/08/14 09:04:47;;;;;;;;;;;21.90;99.90;;;;;;5045027;28;20047;-52
2023/08/14 09:07:13;;;;;;;8.25;1.10;;;22.00;99.90;;;;;;5044081;28;20290;-49
2023/08/14 09:09:38;;;;;;;3.38;1.50;;;22.10;99.90;;;;;;5043662;28;20124;-50
2023/08/14 09:12:04;;;;;;;;;;;22.10;99.90;;;;;;5044423;28;20111;-50
2023/08/14 09:14:30;;;;;;;6.30;1.50;;;22.10;99.90;;;;;;5042804;28;19921;-52
2023/08/14 09:16:57;;;;;;;;;;;22.20;99.90;;;;;;5043726;28;20087;-49
2023/08/14 09:19:23;;;;;;;6.57;1.60;;;22.30;99.90;;;;;;5043654;28;19975;-50
2023/08/14 09:21:48;;;;;;;;;;;22.30;99.90;;;;;;5025025;28;20120;-52
2023/08/14 09:24:15;;;;;;;2.97;1.20;;;22.40;99.90;;;;;;5026868;28;19916;-52
2023/08/14 09:26:44;;;;;;;4.25;1.77;;;22.40;99.90;;;;;;5023376;28;20521;-53
2023/08/14 09:29:13;;;;;;;2.50;1.33;;;22.50;99.90;;;;;;5040939;28;20385;-53
2023/08/14 09:31:43;;;;;;;5.50;1.92;;;22.60;99.90;;;;;;5040740;28;20080;-54
2023/08/14 09:34:15;;;;;;;9.75;2.08;;;22.60;99.90;;;;;;5026216;28;20095;-51
2023/08/14 09:36:41;;;;;;;3.60;1.77;;;22.70;99.90;;;;;;5043253;28;20120;-51
2023/08/14 09:39:06;;;;;;;;;;;22.90;99.90;;;;;;5043510;28;20128;-53
2023/08/14 09:41:32;;;;;;;6.78;1.35;;;22.90;99.90;;;;;;5043930;28;19924;-51
2023/08/14 09:44:01;;;;;;;5.30;1.30;;;23.00;99.90;;;;;;5023486;28;20037;-52
2023/08/14 09:46:28;;;;;;;4.53;1.75;;;23.10;99.90;;;;;;5043218;28;20041;-53
2023/08/14 09:48:55;;;;;;;8.98;1.67;;;23.20;99.90;;;;;;5043248;28;20041;-53
2023/08/14 09:51:21;;;;;;;5.47;1.20;;;23.30;99.90;;;;;;5043710;28;20029;-52
2023/08/14 09:53:58;;;;;;;;;;;23.30;99.90;;;;;;5044119;28;20033;-52
2023/08/14 09:56:25;;;;;;;4.93;1.48;;;23.40;99.90;;;;;;5041550;28;19916;-53
2023/08/14 09:58:53;;;;;;;5.55;1.30;;;23.50;99.90;;;;;;5043332;28;20044;-53
2023/08/14 10:01:20;;;;;;;8.48;1.35;;;23.50;99.90;;;;;;5043184;28;20576;-54
2023/08/14 10:03:49;;;;;;;3.90;1.60;;;23.60;99.90;;;;;;5041443;28;20144;-53
2023/08/14 10:06:15;;;;;;;7.07;0.60;;;23.70;99.90;;;;;;5043712;28;20394;-53
2023/08/14 10:08:44;;;;;;;6.18;0.80;;;23.70;99.90;;;;;;5042749;28;20545;-51
2023/08/14 10:11:13;;;;;;;4.22;0.90;;;23.70;99.90;;;;;;5024037;28;20033;-50
2023/08/14 10:13:45;;;;;;;6.32;0.90;;;23.80;99.90;;;;;;5041696;28;20034;-52
2023/08/14 10:16:25;;;;;;;3.97;0.93;;;23.90;99.90;;;;;;5041781;28;20170;-51
2023/08/14 10:18:56;;;;;;;3.33;0.50;;;24.00;99.90;;;;;;5042120;28;20036;-51
2023/08/14 10:21:26;;;;;;;1.98;0.40;;;24.00;99.90;;;;;;5042867;28;20051;-51
2023/08/14 10:23:53;;;;;;;4.57;0.77;;;24.10;99.90;;;;;;5043654;28;20037;-53
2023/08/14 10:26:19;;;;;;;5.95;0.82;;;24.10;99.90;;;;;;5042634;28;20033;-54
2023/08/14 10:28:45;;;;;;;3.47;0.73;;;24.10;99.90;;;;;;5042347;28;20047;-52
2023/08/14 10:31:12;;;;;;;5.90;1.15;;;24.10;99.90;;;;;;5024164;28;20346;-51
2023/08/14 10:33:39;;;;;;;2.40;0.82;;;24.20;99.90;;;;;;5041011;28;20040;-52
2023/08/14 10:36:04;;;;;;;2.53;0.55;;;24.20;99.90;;;;;;5038814;28;20048;-54
2023/08/14 10:38:42;;;;;;;5.88;0.77;;;24.40;99.90;;;;;;5024244;28;20048;-54
2023/08/14 10:41:09;;;;;;;4.10;0.82;;;24.50;99.90;;;;;;5041386;28;20063;-54
2023/08/14 10:43:35;;;;;;;3.33;0.82;;;24.60;99.90;;;;;;5042232;28;20612;-52
2023/08/14 10:46:14;;;;;;;4.28;0.80;;;24.60;99.90;;;;;;5041781;28;20036;-54
2023/08/14 10:48:42;;;;;;;3.85;0.88;;;24.60;99.90;;;;;;5039193;28;20056;-54
2023/08/14 10:51:08;;;;;;;4.20;0.63;;;24.60;99.90;;;;;;5041560;28;20446;-51
2023/08/14 10:53:35;;;;;;;4.93;0.80;;;24.60;99.90;;;;;;5037169;28;20044;-54
2023/08/14 10:56:01;;;;;;;5.90;0.85;;;24.70;99.90;;;;;;5040978;28;20064;-54
2023/08/14 10:58:35;;;;;;;6.88;0.80;;;24.80;99.90;;;;;;5023888;28;20044;-53
2023/08/14 11:01:07;;;;;;;6.03;1.30;;;24.90;99.90;;;;;;5040916;28;20178;-53
2023/08/14 11:03:34;;;;;;;2.80;0.65;;;25.00;99.90;;;;;;5041995;28;20083;-53
2023/08/14 11:06:00;;;;;;;4.15;0.50;;;25.00;99.90;;;;;;5040810;28;20572;-54
2023/08/14 11:08:29;;;;;;;4.13;0.60;;;25.00;99.90;;;;;;5041172;28;20037;-54
2023/08/14 11:10:56;;;;;;;4.70;1.13;;;24.90;99.90;;;;;;5042383;28;20052;-54
2023/08/14 11:13:22;;;;;;;3.25;0.60;;;24.70;99.90;;;;;;5019857;28;20040;-54
2023/08/14 11:15:48;;;;;;;6.53;0.80;;;24.60;99.90;;;;;;5040051;28;20041;-52
2023/08/14 11:18:15;;;;;;;4.63;0.60;;;24.80;99.90;;;;;;5024056;28;21303;-53
2023/08/14 11:20:42;;;;;;;4.72;0.80;;;24.90;99.90;;;;;;5024974;28;20502;-54
2023/08/14 11:23:09;;;;;;;6.18;1.20;;;24.90;99.90;;;;;;5023053;28;20039;-54
2023/08/14 11:25:35;;;;;;;3.50;0.82;;;24.90;99.90;;;;;;5040482;28;20453;-53
2023/08/14 11:28:01;;;;;;;4.93;0.70;;;24.70;99.90;;;;;;5041193;28;20122;-52
2023/08/14 11:30:32;;;;;;;5.97;0.80;;;24.80;99.90;;;;;;5040202;28;20501;-53
2023/08/14 11:32:57;;;;;;;13.80;1.20;;;24.80;99.90;;;;;;5023859;28;20533;-53
2023/08/14 11:35:25;;;;;;;4.05;0.43;;;24.80;99.90;;;;;;5040211;28;20036;-53
2023/08/14 11:37:51;;;;;;;4.05;0.65;;;24.70;99.90;;;;;;5039857;28;20041;-54
2023/08/14 11:40:17;;;;;;;4.35;0.65;;;24.90;99.90;;;;;;5042795;28;20029;-52
2023/08/14 11:42:43;;;;;;;3.67;0.80;;;25.10;99.90;;;;;;5041285;28;20518;-53
2023/08/14 11:45:10;;;;;;;3.10;0.70;;;25.00;99.40;;;;;;5042395;28;20037;-52
2023/08/14 11:47:47;;;;;;;3.35;0.60;;;24.90;99.80;;;;;;5039932;28;20033;-53
2023/08/14 11:50:13;;;;;;;3.90;0.60;;;24.80;99.80;;;;;;5044271;28;20040;-54
2023/08/14 11:52:40;;;;;;;4.03;0.75;;;24.70;99.90;;;;;;5041519;28;20037;-54
2023/08/14 11:55:06;;;;;;;4.28;0.60;;;24.60;99.80;;;;;;5040608;28;20033;-51
2023/08/14 11:57:33;;;;;;;3.90;0.70;;;24.60;99.90;;;;;;5040358;28;20049;-53
2023/08/14 12:00:00;;;;;;;2.70;0.50;;;24.50;99.90;;;;;;5043312;28;20641;-54
2023/08/14 12:02:27;;;;;;;3.05;0.60;;;24.60;99.90;;;;;;5042656;28;20083;-53
2023/08/14 12:04:55;;;;;;;7.35;0.80;;;24.70;99.90;;;;;;5041048;28;20087;-54
2023/08/14 12:07:21;;;;;;;3.55;0.80;;;24.90;99.90;;;;;;5042173;28;20033;-53
2023/08/14 12:09:48;;;;;;;4.15;0.80;;;24.90;99.60;;;;;;5040879;28;20048;-53
2023/08/14 12:12:14;;;;;;;4.18;0.77;;;25.00;99.70;;;;;;5040229;28;20033;-51
2023/08/14 12:14:45;;;;;;;3.03;0.65;;;25.00;99.30;;;;;;5040850;28;20256;-54
2023/08/14 12:17:12;;;;;;;2.10;0.40;;;24.90;99.50;;;;;;5041154;28;20040;-54
2023/08/14 12:19:38;;;;;;;3.95;0.73;;;25.00;99.60;;;;;;5022951;28;20079;-52
2023/08/14 12:22:06;;;;;;;2.40;0.57;;;25.10;99.90;;;;;;5041241;28;20472;-54
2023/08/14 12:24:43;;;;;;;5.38;0.52;;;25.30;99.90;;;;;;5040408;28;20498;-52
2023/08/14 12:27:26;;;;;;;3.35;0.55;;;25.50;99.80;;;;;;5039329;28;20052;-54
2023/08/14 12:29:53;;;;;;;4.40;1.25;;;25.60;99.30;;;;;;5039569;28;20033;-51
2023/08/14 12:32:20;;;;;;;3.97;0.60;;;25.60;98.90;;;;;;5020003;28;20045;-55
2023/08/14 12:34:46;;;;;;;3.10;0.55;;;25.60;98.90;;;;;;5040180;28;20045;-52
2023/08/14 12:37:14;;;;;;;4.57;0.82;;;25.70;99.00;;;;;;5044894;28;20502;-54
2023/08/14 12:39:40;;;;;;;3.42;0.65;;;25.70;98.90;;;;;;5044364;28;20047;-50
2023/08/14 12:42:06;;;;;;;2.53;0.95;;;25.70;99.20;;;;;;5022691;28;20030;-52
2023/08/14 12:44:32;;;;;;;3.20;0.52;;;25.70;99.10;;;;;;5044851;28;20588;-54
2023/08/14 12:46:58;;;;;;;3.20;0.40;;;25.70;98.80;;;;;;5041727;28;20387;-52